Impacts TAF Board INFO
FOR SITUATIONAL AWARENESS. NOT TO BE USED FOR FLIGHT PLANNING PURPOSES.
IDs:

KBTR - Baton Rouge/Ryan Fld, LA, US

Issued at 0520 UTC 17 Aug 2018
Updated at 0931 UTC 17 Aug 2018
Potential Impact None Slight Moderate High
Time<<17/22Z 17/23Z 18/00Z 18/01Z 18/02Z 18/03Z 18/04Z 18/05Z 18/06Z 18/07Z 18/08Z 18/09Z 18/10Z>>
Type PRVL PRVL PRVL PRVL PRVL PRVL PRVL PRVL
VIS >6 >6 >6 >6 >6 >6 >6 >6
CIG 200 200 200 200 -- -- -- --
Cover BKN BKN BKN BKN SCT SCT SCT SCT
FltCat VFR VFR VFR VFR VFR VFR VFR VFR
WX VCTS VCTS VCTS VCTS -- -- -- --
WDir 190 190 190 190 VRB VRB VRB VRB
WSpd 5 5 5 5 3 3 3 3
WGst -- -- -- -- -- -- -- --

Raw TAF
KBTR 170520Z 1706/1806 05003KT 6SM BR FEW080
  FM171500 24005KT P6SM BKN050
  FM172000 19005KT P6SM VCTS SCT030CB BKN200
  FM180200 VRB03KT P6SM FEW050 SCT250


METAR Board
Radar Display
Forecast Discussion

FOR SITUATIONAL AWARENESS. NOT TO BE USED FOR FLIGHT PLANNING PURPOSES.